createdAt,value
2018-10-21T00:00:18.527Z,9.31
2018-10-21T00:02:47.760Z,9.25
2018-10-21T00:05:18.065Z,9.22
2018-10-21T00:07:47.287Z,9.23
2018-10-21T00:10:17.702Z,9.25
2018-10-21T00:12:46.927Z,9.17
2018-10-21T00:15:16.853Z,9.15
2018-10-21T00:17:46.158Z,9.16
2018-10-21T00:20:16.234Z,9.15
2018-10-21T00:22:45.447Z,9.15
2018-10-21T00:25:15.691Z,9.09
2018-10-21T00:27:44.891Z,9.09
2018-10-21T00:30:14.457Z,8.87
2018-10-21T00:32:50.593Z,8.73
2018-10-21T00:35:20.052Z,8.68
2018-10-21T00:37:49.269Z,8.69
2018-10-21T00:40:20.698Z,8.72
2018-10-21T00:42:49.894Z,8.68
2018-10-21T00:45:19.191Z,8.74
2018-10-21T00:47:48.426Z,8.65
2018-10-21T00:50:18.741Z,8.72
2018-10-21T00:52:47.967Z,8.76
2018-10-21T00:55:17.882Z,8.85
2018-10-21T00:57:47.133Z,8.79
2018-10-21T01:00:17.282Z,8.70
2018-10-21T01:02:46.608Z,8.57
2018-10-21T01:05:17.068Z,8.64
2018-10-21T01:07:46.284Z,8.69
2018-10-21T01:10:17.096Z,8.78
2018-10-21T01:12:46.308Z,8.88
2018-10-21T01:15:16.578Z,8.86
2018-10-21T01:17:45.792Z,9.02
2018-10-21T01:20:16.584Z,9.12
2018-10-21T01:22:45.944Z,9.31
2018-10-21T01:25:15.904Z,9.38
2018-10-21T01:27:45.097Z,9.21
2018-10-21T01:30:14.673Z,9.14
2018-10-21T01:32:43.857Z,9.11
2018-10-21T01:35:13.186Z,8.98
2018-10-21T01:37:42.459Z,8.68
2018-10-21T01:40:38.162Z,8.61
2018-10-21T01:43:08.453Z,8.57
2018-10-21T01:45:37.682Z,8.50
2018-10-21T01:48:08.145Z,8.47
2018-10-21T01:50:37.410Z,8.40
2018-10-21T01:53:07.797Z,8.46
2018-10-21T01:55:37.870Z,8.37
2018-10-21T01:58:07.169Z,8.34
2018-10-21T02:00:36.666Z,8.29
2018-10-21T02:03:06.742Z,8.31
2018-10-21T02:05:36.256Z,8.28
2018-10-21T02:08:05.640Z,8.12
2018-10-21T02:10:35.023Z,8.05
2018-10-21T02:13:04.319Z,8.16
2018-10-21T02:15:33.573Z,8.05
2018-10-21T02:18:02.923Z,7.90
2018-10-21T02:20:32.160Z,7.80
2018-10-21T02:23:01.396Z,7.91
2018-10-21T02:25:30.725Z,7.92
2018-10-21T02:27:59.952Z,7.89
2018-10-21T02:30:30.115Z,7.84
2018-10-21T02:33:00.132Z,8.04
2018-10-21T02:35:29.348Z,8.19
2018-10-21T02:37:58.831Z,8.09
2018-10-21T02:41:38.870Z,8.14
2018-10-21T02:44:13.397Z,8.01
2018-10-21T02:46:43.270Z,7.94
2018-10-21T02:49:13.476Z,7.91
2018-10-21T02:51:42.740Z,7.84
2018-10-21T02:54:12.108Z,7.90
2018-10-21T02:56:41.341Z,7.93
2018-10-21T02:59:10.543Z,7.91
2018-10-21T03:01:39.802Z,7.88
2018-10-21T03:04:09.052Z,7.84
2018-10-21T03:06:38.420Z,7.92
2018-10-21T03:09:08.344Z,7.78
2018-10-21T03:11:37.595Z,7.73
2018-10-21T03:14:06.883Z,7.75
2018-10-21T03:16:36.123Z,7.67
2018-10-21T03:19:05.424Z,7.63
2018-10-21T03:21:34.686Z,7.60
2018-10-21T03:24:03.992Z,7.55
2018-10-21T03:26:33.232Z,7.72
2018-10-21T03:29:02.452Z,7.76
2018-10-21T03:31:31.709Z,7.85
2018-10-21T03:34:01.070Z,7.60
2018-10-21T03:36:30.206Z,7.64
2018-10-21T03:38:59.430Z,7.50
2018-10-21T03:41:28.692Z,7.42
2018-10-21T03:43:57.954Z,7.43
2018-10-21T03:46:27.197Z,7.58
2018-10-21T03:48:56.429Z,7.79
2018-10-21T03:51:25.781Z,7.79
2018-10-21T03:53:55.013Z,7.72
2018-10-21T03:56:24.228Z,7.49
2018-10-21T03:58:53.501Z,7.33
2018-10-21T04:01:22.807Z,7.63
2018-10-21T04:03:52.822Z,7.75
2018-10-21T04:06:22.080Z,7.92
2018-10-21T04:08:51.262Z,7.82
2018-10-21T04:11:20.807Z,7.68
2018-10-21T04:13:50.056Z,7.57
2018-10-21T04:16:19.305Z,7.63
2018-10-21T04:18:48.494Z,7.60
2018-10-21T04:21:17.998Z,7.66
2018-10-21T04:23:47.232Z,7.79
2018-10-21T04:26:16.992Z,7.57
2018-10-21T04:28:46.233Z,7.64
2018-10-21T04:31:15.729Z,7.41
2018-10-21T04:33:45.815Z,7.14
2018-10-21T04:36:17.335Z,7.06
2018-10-21T04:40:02.018Z,7.15
2018-10-21T04:42:31.342Z,7.17
2018-10-21T04:45:01.067Z,7.05
2018-10-21T04:47:30.594Z,6.91
2018-10-21T04:49:59.870Z,6.80
2018-10-21T04:52:30.168Z,6.68
2018-10-21T04:55:04.710Z,6.56
2018-10-21T04:57:34.108Z,6.50
2018-10-21T05:00:03.615Z,6.53
2018-10-21T05:02:32.818Z,6.49
2018-10-21T05:05:02.081Z,6.50
2018-10-21T05:07:31.337Z,6.40
2018-10-21T05:10:00.632Z,6.34
2018-10-21T05:12:29.827Z,6.33
2018-10-21T05:14:59.044Z,6.32
2018-10-21T05:17:28.270Z,6.38
2018-10-21T05:19:57.483Z,6.55
2018-10-21T05:22:26.750Z,6.44
2018-10-21T05:24:56.014Z,6.31
2018-10-21T05:27:25.291Z,6.42
2018-10-21T05:29:54.519Z,6.41
2018-10-21T05:32:23.707Z,6.27
2018-10-21T05:34:52.963Z,6.29
2018-10-21T05:37:22.140Z,6.35
2018-10-21T05:39:51.375Z,6.29
2018-10-21T05:42:20.592Z,6.38
2018-10-21T05:44:49.806Z,6.48
2018-10-21T05:47:19.098Z,6.71
2018-10-21T05:49:48.334Z,6.69
2018-10-21T05:52:17.617Z,6.69
2018-10-21T05:54:46.765Z,6.49
2018-10-21T05:57:16.011Z,6.52
2018-10-21T05:59:45.219Z,6.27
2018-10-21T06:02:14.494Z,6.20
2018-10-21T06:04:43.689Z,6.10
2018-10-21T06:07:12.985Z,6.18
2018-10-21T06:09:42.224Z,5.93
2018-10-21T06:12:11.436Z,5.96
2018-10-21T06:14:40.659Z,6.08
2018-10-21T06:17:14.121Z,6.20
2018-10-21T06:19:46.135Z,6.42
2018-10-21T06:22:15.467Z,6.44
2018-10-21T06:24:44.579Z,6.49
2018-10-21T06:27:13.815Z,6.27
2018-10-21T06:29:43.012Z,6.14
2018-10-21T06:32:12.424Z,6.09
2018-10-21T06:34:41.647Z,6.30
2018-10-21T06:37:11.094Z,6.70
2018-10-21T06:39:40.366Z,7.32
2018-10-21T06:42:10.256Z,7.40
2018-10-21T06:44:39.452Z,7.72
2018-10-21T06:47:09.592Z,8.01
2018-10-21T06:49:38.805Z,8.30
2018-10-21T06:52:08.332Z,8.66
2018-10-21T06:54:37.542Z,8.28
2018-10-21T06:57:07.039Z,8.22
2018-10-21T06:59:36.137Z,8.67
2018-10-21T07:02:05.650Z,8.48
2018-10-21T07:04:34.881Z,8.75
2018-10-21T07:07:04.223Z,8.60
2018-10-21T07:09:33.439Z,9.13
2018-10-21T07:12:02.714Z,8.52
2018-10-21T07:14:31.965Z,8.47
2018-10-21T07:17:01.168Z,8.94
2018-10-21T07:19:30.502Z,9.16
2018-10-21T07:21:59.786Z,9.85
2018-10-21T07:24:29.005Z,9.98
2018-10-21T07:26:58.214Z,10.19
2018-10-21T07:29:27.509Z,9.72
2018-10-21T07:31:56.729Z,10.00
2018-10-21T07:34:25.956Z,10.98
2018-10-21T07:36:55.224Z,11.74
2018-10-21T07:39:24.428Z,12.21
2018-10-21T07:41:54.375Z,10.97
2018-10-21T07:44:23.660Z,11.07
2018-10-21T07:46:53.247Z,11.75
2018-10-21T07:49:22.470Z,11.98
2018-10-21T07:51:51.708Z,11.66
2018-10-21T07:54:21.911Z,12.41
2018-10-21T07:56:51.135Z,12.29
2018-10-21T07:59:20.384Z,12.50
2018-10-21T08:01:49.777Z,13.07
2018-10-21T08:04:19.000Z,12.57
2018-10-21T08:06:59.408Z,12.71
2018-10-21T08:09:28.657Z,12.64
2018-10-21T08:11:57.886Z,12.63
2018-10-21T08:14:27.196Z,13.13
2018-10-21T08:16:56.420Z,11.50
2018-10-21T08:19:25.718Z,11.66
2018-10-21T08:21:54.987Z,12.60
2018-10-21T08:24:24.150Z,12.02
2018-10-21T08:26:53.345Z,11.87
2018-10-21T08:29:22.550Z,11.70
2018-10-21T08:31:51.747Z,11.29
2018-10-21T08:34:21.027Z,11.20
2018-10-21T08:36:50.224Z,10.85
2018-10-21T08:39:19.430Z,9.77
2018-10-21T08:41:48.649Z,9.69
2018-10-21T08:44:17.906Z,10.21
2018-10-21T08:46:47.244Z,10.24
2018-10-21T08:49:16.619Z,9.81
2018-10-21T08:51:45.761Z,10.28
2018-10-21T08:54:14.997Z,10.54
2018-10-21T08:56:44.211Z,10.79
2018-10-21T08:59:13.431Z,10.58
2018-10-21T09:01:42.759Z,10.85
2018-10-21T09:04:12.107Z,10.97
2018-10-21T09:06:41.346Z,11.19
2018-10-21T09:09:11.862Z,10.61
2018-10-21T09:11:41.437Z,11.12
2018-10-21T09:14:11.152Z,11.31
2018-10-21T09:16:40.455Z,11.33
2018-10-21T09:19:10.325Z,11.12
2018-10-21T09:21:39.809Z,11.47
2018-10-21T09:24:09.380Z,11.58
2018-10-21T09:26:38.905Z,11.86
2018-10-21T09:29:08.903Z,11.90
2018-10-21T09:31:38.125Z,11.99
2018-10-21T09:34:08.329Z,12.09
2018-10-21T09:36:37.609Z,12.14
2018-10-21T09:39:11.436Z,11.64
2018-10-21T09:41:40.699Z,11.34
2018-10-21T09:44:10.901Z,11.39
2018-10-21T09:46:40.874Z,11.54
2018-10-21T09:49:11.174Z,11.88
2018-10-21T09:51:40.342Z,11.87
2018-10-21T09:54:10.347Z,11.89
2018-10-21T09:56:39.551Z,12.01
2018-10-21T09:59:09.438Z,11.96
2018-10-21T10:01:45.139Z,12.16
2018-10-21T10:04:15.630Z,12.24
2018-10-21T10:06:45.731Z,12.51
2018-10-21T10:09:16.265Z,12.72
2018-10-21T10:11:46.542Z,13.02
2018-10-21T10:14:17.561Z,12.77
2018-10-21T10:16:47.134Z,12.61
2018-10-21T10:19:17.364Z,12.56
2018-10-21T10:21:46.509Z,12.73
2018-10-21T10:24:15.731Z,12.45
2018-10-21T10:26:45.009Z,12.72
2018-10-21T10:29:14.319Z,13.03
2018-10-21T10:31:43.485Z,13.30
2018-10-21T10:34:12.742Z,13.24
2018-10-21T10:36:41.921Z,13.52
2018-10-21T10:39:11.766Z,13.50
2018-10-21T10:41:41.792Z,13.57
2018-10-21T10:44:11.143Z,13.17
2018-10-21T10:46:40.385Z,13.47
2018-10-21T10:49:09.970Z,13.16
2018-10-21T10:51:39.197Z,12.90
2018-10-21T10:54:09.001Z,12.96
2018-10-21T10:56:38.292Z,13.29
2018-10-21T10:59:07.726Z,13.23
2018-10-21T11:01:36.953Z,13.27
2018-10-21T11:04:06.267Z,13.61
2018-10-21T11:06:35.482Z,13.71
2018-10-21T11:09:07.732Z,13.55
2018-10-21T11:11:36.937Z,13.65
2018-10-21T11:14:06.218Z,13.87
2018-10-21T11:16:35.540Z,14.05
2018-10-21T11:19:04.885Z,13.71
2018-10-21T11:21:34.108Z,13.53
2018-10-21T11:24:03.363Z,13.77
2018-10-21T11:26:32.601Z,13.77
2018-10-21T11:29:01.925Z,14.16
2018-10-21T11:31:31.309Z,14.23
2018-10-21T11:34:00.549Z,14.27
2018-10-21T11:36:30.050Z,14.24
2018-10-21T11:38:59.258Z,14.29
2018-10-21T11:41:28.494Z,14.25
2018-10-21T11:43:57.715Z,14.53
2018-10-21T11:46:27.326Z,14.48
2018-10-21T11:48:57.097Z,14.10
2018-10-21T11:51:26.549Z,14.02
2018-10-21T11:53:56.071Z,13.85
2018-10-21T11:56:26.425Z,14.08
2018-10-21T11:58:56.035Z,14.16
2018-10-21T12:01:25.444Z,14.50
2018-10-21T12:03:54.848Z,14.45
2018-10-21T12:06:24.528Z,14.13
2018-10-21T12:08:54.197Z,14.42
2018-10-21T12:11:23.799Z,14.62
2018-10-21T12:13:53.074Z,14.83
2018-10-21T12:16:22.340Z,14.60
2018-10-21T12:18:51.638Z,14.45
2018-10-21T12:21:20.898Z,14.37
2018-10-21T12:23:50.356Z,14.28
2018-10-21T12:26:19.695Z,14.41
2018-10-21T12:28:48.907Z,14.58
2018-10-21T12:31:19.714Z,14.91
2018-10-21T12:33:48.976Z,14.83
2018-10-21T12:36:18.192Z,14.86
2018-10-21T12:38:47.391Z,14.88
2018-10-21T12:41:16.666Z,15.02
2018-10-21T12:43:45.919Z,14.55
2018-10-21T12:46:15.205Z,14.75
2018-10-21T12:48:44.472Z,14.92
2018-10-21T12:51:13.699Z,15.02
2018-10-21T12:53:42.883Z,14.94
2018-10-21T12:56:12.108Z,14.86
2018-10-21T12:58:41.447Z,14.91
2018-10-21T13:01:11.493Z,14.92
2018-10-21T13:03:40.603Z,15.12
2018-10-21T13:06:10.257Z,14.86
2018-10-21T13:08:39.471Z,15.24
2018-10-21T13:11:09.267Z,15.11
2018-10-21T13:13:38.695Z,15.12
2018-10-21T13:16:08.472Z,14.98
2018-10-21T13:18:37.683Z,15.37
2018-10-21T13:21:07.250Z,15.64
2018-10-21T13:23:37.053Z,15.68
2018-10-21T13:26:06.299Z,15.64
2018-10-21T13:29:01.856Z,15.76
2018-10-21T13:31:31.021Z,15.67
2018-10-21T13:34:00.218Z,15.60
2018-10-21T13:36:29.431Z,15.53
2018-10-21T13:38:58.751Z,15.75
2018-10-21T13:41:28.139Z,15.69
2018-10-21T13:43:57.335Z,15.30
2018-10-21T13:46:26.674Z,15.42
2018-10-21T13:48:55.867Z,15.28
2018-10-21T13:51:25.325Z,15.51
2018-10-21T13:53:54.468Z,15.51
2018-10-21T13:56:23.775Z,15.42
2018-10-21T13:58:53.011Z,15.56
2018-10-21T14:01:22.348Z,15.36
2018-10-21T14:03:51.595Z,15.32
2018-10-21T14:06:20.843Z,15.22
2018-10-21T14:08:50.086Z,15.38
2018-10-21T14:11:19.317Z,15.53
2018-10-21T14:13:48.519Z,15.68
2018-10-21T14:16:17.828Z,15.69
2018-10-21T14:18:47.033Z,15.53
2018-10-21T14:21:16.303Z,15.57
2018-10-21T14:23:45.540Z,15.62
2018-10-21T14:26:14.776Z,15.75
2018-10-21T14:28:44.003Z,15.79
2018-10-21T14:31:13.339Z,15.69
2018-10-21T14:33:42.555Z,15.60
2018-10-21T14:36:11.885Z,15.71
2018-10-21T14:38:41.050Z,15.75
2018-10-21T14:41:10.373Z,15.67
2018-10-21T14:43:39.600Z,15.69
2018-10-21T14:46:09.323Z,15.61
2018-10-21T14:48:38.528Z,15.71
2018-10-21T14:51:08.175Z,15.47
2018-10-21T14:53:37.361Z,15.23
2018-10-21T14:56:06.888Z,15.12
2018-10-21T14:58:36.613Z,15.08
2018-10-21T15:01:05.915Z,15.03
2018-10-21T15:03:35.745Z,15.13
2018-10-21T15:06:04.964Z,15.14
2018-10-21T15:08:34.183Z,15.11
2018-10-21T15:11:03.695Z,15.02
2018-10-21T15:13:32.951Z,15.01
2018-10-21T15:16:02.206Z,14.98
2018-10-21T15:18:31.473Z,14.97
2018-10-21T15:21:00.679Z,14.92
2018-10-21T15:23:29.967Z,14.89
2018-10-21T15:25:59.198Z,14.84
2018-10-21T15:28:28.427Z,14.79
2018-10-21T15:30:57.682Z,14.70
2018-10-21T15:33:27.380Z,14.62
2018-10-21T15:35:56.636Z,14.52
2018-10-21T15:38:25.946Z,14.54
2018-10-21T15:40:55.161Z,14.46
2018-10-21T15:43:24.385Z,14.43
2018-10-21T15:45:53.747Z,14.36
2018-10-21T15:48:22.925Z,14.32
2018-10-21T15:50:52.148Z,14.25
2018-10-21T15:53:21.423Z,14.16
2018-10-21T15:55:50.692Z,14.09
2018-10-21T15:58:19.985Z,14.11
2018-10-21T16:00:49.228Z,13.92
2018-10-21T16:03:18.430Z,13.90
2018-10-21T16:05:47.736Z,13.78
2018-10-21T16:08:17.040Z,13.84
2018-10-21T16:10:46.242Z,13.89
2018-10-21T16:13:15.466Z,13.85
2018-10-21T16:15:44.789Z,13.60
2018-10-21T16:18:13.987Z,13.50
2018-10-21T16:20:43.240Z,13.40
2018-10-21T16:23:12.790Z,13.43
2018-10-21T16:25:42.167Z,13.39
2018-10-21T16:28:11.315Z,13.30
2018-10-21T16:30:41.202Z,13.18
2018-10-21T16:33:10.689Z,13.08
2018-10-21T16:35:39.946Z,13.01
2018-10-21T16:38:09.435Z,12.95
2018-10-21T16:40:38.680Z,12.83
2018-10-21T16:43:07.905Z,12.81
2018-10-21T16:45:37.163Z,12.77
2018-10-21T16:48:06.431Z,12.77
2018-10-21T16:50:37.739Z,12.77
2018-10-21T16:53:04.873Z,12.75
2018-10-21T16:55:34.096Z,12.72
2018-10-21T16:58:03.347Z,12.66
2018-10-21T17:00:32.695Z,12.64
2018-10-21T17:03:01.937Z,12.54
2018-10-21T17:05:31.145Z,12.40
2018-10-21T17:08:00.392Z,12.32
2018-10-21T17:10:29.886Z,12.32
2018-10-21T17:12:58.917Z,12.39
2018-10-21T17:15:28.179Z,12.39
2018-10-21T17:17:57.409Z,12.43
2018-10-21T17:20:26.700Z,12.36
2018-10-21T17:22:55.896Z,12.31
2018-10-21T17:25:25.133Z,12.34
2018-10-21T17:27:54.461Z,12.31
2018-10-21T17:30:24.662Z,12.28
2018-10-21T17:32:53.914Z,12.30
2018-10-21T17:35:23.144Z,12.33
2018-10-21T17:37:52.735Z,12.36
2018-10-21T17:40:21.996Z,12.35
2018-10-21T17:42:51.306Z,12.31
2018-10-21T17:45:21.149Z,12.27
2018-10-21T17:47:50.572Z,12.24
2018-10-21T17:50:20.215Z,12.19
2018-10-21T17:52:49.476Z,12.12
2018-10-21T17:55:19.311Z,12.06
2018-10-21T17:57:48.445Z,12.12
2018-10-21T18:00:19.212Z,12.04
2018-10-21T18:02:48.459Z,11.92
2018-10-21T18:05:19.075Z,11.91
2018-10-21T18:07:48.429Z,11.85
2018-10-21T18:10:19.764Z,11.85
2018-10-21T18:12:49.138Z,11.81
2018-10-21T18:15:19.240Z,11.80
2018-10-21T18:17:48.519Z,11.82
2018-10-21T18:20:19.121Z,11.75
2018-10-21T18:22:48.422Z,11.68
2018-10-21T18:25:18.651Z,11.73
2018-10-21T18:27:47.821Z,11.76
2018-10-21T18:30:20.174Z,11.76
2018-10-21T18:32:49.946Z,11.83
2018-10-21T18:35:19.624Z,11.91
2018-10-21T18:37:49.238Z,11.89
2018-10-21T18:40:19.497Z,11.78
2018-10-21T18:42:48.655Z,11.66
2018-10-21T18:45:18.540Z,11.61
2018-10-21T18:47:47.775Z,11.57
2018-10-21T18:50:17.863Z,11.51
2018-10-21T18:52:47.083Z,11.47
2018-10-21T18:55:17.338Z,11.42
2018-10-21T18:57:46.612Z,11.42
2018-10-21T19:00:18.500Z,11.44
2018-10-21T19:02:47.722Z,11.41
2018-10-21T19:05:18.456Z,11.43
2018-10-21T19:07:47.643Z,11.44
2018-10-21T19:10:17.621Z,11.45
2018-10-21T19:12:59.569Z,11.37
2018-10-21T19:15:16.671Z,11.35
2018-10-21T19:17:45.872Z,11.32
2018-10-21T19:20:17.116Z,11.30
2018-10-21T19:22:46.784Z,11.14
2018-10-21T19:25:18.186Z,10.95
2018-10-21T19:27:47.468Z,11.05
2018-10-21T19:30:17.408Z,11.07
2018-10-21T19:32:46.668Z,10.94
2018-10-21T19:35:18.016Z,10.99
2018-10-21T19:37:47.220Z,11.00
2018-10-21T19:40:17.434Z,10.83
2018-10-21T19:42:46.549Z,10.67
2018-10-21T19:45:17.000Z,10.77
2018-10-21T19:47:46.236Z,10.76
2018-10-21T19:50:17.800Z,10.64
2018-10-21T19:52:48.467Z,10.64
2018-10-21T19:55:18.231Z,10.80
2018-10-21T19:57:47.460Z,10.75
2018-10-21T20:00:17.713Z,10.62
2018-10-21T20:02:47.080Z,10.57
2018-10-21T20:05:18.035Z,10.50
2018-10-21T20:07:47.235Z,10.48
2018-10-21T20:10:17.084Z,10.39
2018-10-21T20:12:46.341Z,10.35
2018-10-21T20:15:16.041Z,10.43
2018-10-21T20:17:45.390Z,10.32
2018-10-21T20:20:14.881Z,10.28
2018-10-21T20:22:44.055Z,10.24
2018-10-21T20:25:13.315Z,10.18
2018-10-21T20:27:42.517Z,10.04
2018-10-21T20:30:12.796Z,10.01
2018-10-21T20:32:42.312Z,10.01
2018-10-21T20:35:12.087Z,9.99
2018-10-21T20:37:41.362Z,10.03
2018-10-21T20:40:11.277Z,9.92
2018-10-21T20:42:40.462Z,9.88
2018-10-21T20:45:10.824Z,9.81
2018-10-21T20:47:40.012Z,9.77
2018-10-21T20:50:09.243Z,9.69
2018-10-21T20:52:38.551Z,9.60
2018-10-21T20:55:07.884Z,9.64
2018-10-21T20:57:37.143Z,9.66
2018-10-21T21:00:06.479Z,9.69
2018-10-21T21:02:35.759Z,9.65
2018-10-21T21:05:05.775Z,9.69
2018-10-21T21:07:34.965Z,9.70
2018-10-21T21:10:04.808Z,9.83
2018-10-21T21:12:33.948Z,9.80
2018-10-21T21:15:03.211Z,9.61
2018-10-21T21:17:32.467Z,9.52
2018-10-21T21:20:01.749Z,9.51
2018-10-21T21:22:30.955Z,9.58
2018-10-21T21:25:00.168Z,9.55
2018-10-21T21:27:29.371Z,9.56
2018-10-21T21:29:58.645Z,9.46
2018-10-21T21:32:27.929Z,9.48
2018-10-21T21:34:57.201Z,9.52
2018-10-21T21:37:26.445Z,9.45
2018-10-21T21:39:55.743Z,9.58
2018-10-21T21:42:24.929Z,9.56
2018-10-21T21:44:54.121Z,9.58
2018-10-21T21:47:23.397Z,9.60
2018-10-21T21:49:52.643Z,9.63
2018-10-21T21:52:21.937Z,9.55
2018-10-21T21:54:51.199Z,9.58
2018-10-21T21:57:20.478Z,9.56
2018-10-21T21:59:49.655Z,9.55
2018-10-21T22:02:19.037Z,9.50
2018-10-21T22:04:48.309Z,9.55
2018-10-21T22:07:18.105Z,9.60
2018-10-21T22:09:47.412Z,9.49
2018-10-21T22:12:16.697Z,9.45
2018-10-21T22:14:45.856Z,9.51
2018-10-21T22:17:15.495Z,9.55
2018-10-21T22:19:44.651Z,9.34
2018-10-21T22:22:14.679Z,9.18
2018-10-21T22:24:43.856Z,9.11
2018-10-21T22:27:13.231Z,9.16
2018-10-21T22:29:42.662Z,9.21
2018-10-21T22:32:11.836Z,9.12
2018-10-21T22:34:41.148Z,9.14
2018-10-21T22:37:10.353Z,9.17
2018-10-21T22:39:39.809Z,9.14
2018-10-21T22:42:10.079Z,9.10
2018-10-21T22:44:39.214Z,9.09
2018-10-21T22:47:08.385Z,9.06
2018-10-21T22:49:37.589Z,8.92
2018-10-21T22:52:06.941Z,8.88
2018-10-21T22:54:36.150Z,8.85
2018-10-21T22:57:09.753Z,8.83
2018-10-21T22:59:38.942Z,8.76
2018-10-21T23:02:08.198Z,8.63
2018-10-21T23:04:37.468Z,8.46
2018-10-21T23:07:06.686Z,8.50
2018-10-21T23:19:21.213Z,8.42
2018-10-21T23:21:50.415Z,8.39
2018-10-21T23:24:19.684Z,8.37
2018-10-21T23:26:48.808Z,8.41
2018-10-21T23:29:18.069Z,8.43
2018-10-21T23:31:47.259Z,8.37
2018-10-21T23:34:17.066Z,8.38
2018-10-21T23:36:46.180Z,8.38
2018-10-21T23:39:15.912Z,8.41
2018-10-21T23:41:45.115Z,8.43
2018-10-21T23:44:14.870Z,8.52
2018-10-21T23:46:44.068Z,8.80
2018-10-21T23:49:14.048Z,8.87
2018-10-21T23:51:43.300Z,8.66
2018-10-21T23:54:13.224Z,8.59
2018-10-21T23:56:42.318Z,8.61
2018-10-21T23:59:12.138Z,8.58
